Time;durP1;ratioP1;P1;durP2;ratioP2;P2;SDS_P1;SDS_P2;PMS_P1;PMS_P2;Temp;Humidity;BMP_temperature;BMP_pressure;BME280_temperature;BME280_humidity;BME280_pressure;Samples;Min_cycle;Max_cycle;Signal;HPM_P1;HPM_P2
2022/06/17 00:00:50;;;;;;;12.52;8.40;;;19.50;98.50;;;;;;5041617;28;20025;-69
2022/06/17 00:03:16;;;;;;;10.38;8.82;;;19.60;98.20;;;;;;5044681;28;20783;-70
2022/06/17 00:05:42;;;;;;;9.82;8.82;;;19.60;97.70;;;;;;5043223;28;20025;-69
2022/06/17 00:08:37;;;;;;;9.75;7.95;;;19.60;97.40;;;;;;5043649;28;20374;-69
2022/06/17 00:11:05;;;;;;;9.52;8.25;;;19.60;97.90;;;;;;5041264;28;20654;-69
2022/06/17 00:13:31;;;;;;;8.75;7.85;;;19.70;98.10;;;;;;5043859;28;20492;-69
2022/06/17 00:15:57;;;;;;;10.43;7.10;;;19.70;97.20;;;;;;5043188;28;20037;-69
2022/06/17 00:18:24;;;;;;;10.55;7.15;;;19.60;97.00;;;;;;5046114;28;20036;-69
2022/06/17 00:20:51;;;;;;;7.65;6.95;;;19.60;97.70;;;;;;5045453;28;20025;-69
2022/06/17 00:23:19;;;;;;;9.98;8.90;;;19.60;98.10;;;;;;5045218;28;20017;-69
2022/06/17 00:25:46;;;;;;;7.70;6.90;;;19.60;97.60;;;;;;5044005;28;20535;-69
2022/06/17 00:28:19;;;;;;;12.18;8.25;;;19.60;98.80;;;;;;5044883;28;20105;-69
2022/06/17 00:30:47;;;;;;;12.80;7.70;;;19.60;98.00;;;;;;5042222;28;20497;-69
2022/06/17 00:33:15;;;;;;;10.60;8.15;;;19.50;98.00;;;;;;5045301;28;20014;-69
2022/06/17 00:35:44;;;;;;;10.40;7.55;;;19.40;98.20;;;;;;5042257;28;20021;-69
2022/06/17 00:38:15;;;;;;;9.77;7.78;;;19.50;98.10;;;;;;5042794;28;20113;-69
2022/06/17 00:40:43;;;;;;;8.15;7.10;;;19.50;98.40;;;;;;5046834;28;20017;-70
2022/06/17 00:43:36;;;;;;;10.00;7.68;;;19.40;98.80;;;;;;5042785;28;20025;-69
2022/06/17 00:46:27;;;;;;;13.30;8.32;;;19.40;98.20;;;;;;5044469;28;20033;-69
2022/06/17 00:49:10;;;;;;;8.13;6.85;;;19.40;98.90;;;;;;5043543;28;20029;-69
2022/06/17 00:51:44;;;;;;;9.25;7.43;;;19.30;99.20;;;;;;5043036;28;20093;-69
2022/06/17 00:54:41;;;;;;;12.98;6.85;;;19.20;99.20;;;;;;5041917;28;20507;-69
2022/06/17 00:57:18;;;;;;;9.18;6.82;;;19.20;99.90;;;;;;5040713;28;20072;-69
2022/06/17 00:59:58;;;;;;;11.82;8.25;;;19.10;99.90;;;;;;5047732;28;20025;-69
2022/06/17 01:02:26;;;;;;;8.90;7.35;;;19.10;99.80;;;;;;5043494;28;20028;-69
2022/06/17 01:04:51;;;;;;;9.68;7.50;;;19.10;98.90;;;;;;5041611;28;20492;-69
2022/06/17 01:07:31;;;;;;;10.32;8.13;;;19.10;99.40;;;;;;5043352;28;20021;-69
2022/06/17 01:10:02;;;;;;;10.50;8.90;;;19.10;98.90;;;;;;5042575;28;20017;-69
2022/06/17 01:12:42;;;;;;;13.23;8.60;;;19.00;98.50;;;;;;5044581;28;20036;-69
2022/06/17 01:15:09;;;;;;;8.73;7.70;;;19.00;98.80;;;;;;5042859;28;20025;-69
2022/06/17 01:17:39;;;;;;;10.48;7.75;;;19.00;99.20;;;;;;5038209;28;20041;-70
2022/06/17 01:20:08;;;;;;;11.10;8.25;;;18.90;99.10;;;;;;5042113;28;20025;-69
2022/06/17 01:22:45;;;;;;;10.95;8.23;;;18.90;99.20;;;;;;5043785;28;20115;-69
2022/06/17 01:25:14;;;;;;;10.38;8.52;;;18.80;98.90;;;;;;5044592;28;20053;-69
2022/06/17 01:27:43;;;;;;;10.38;8.57;;;18.80;99.50;;;;;;5042071;28;20021;-69
2022/06/17 01:30:14;;;;;;;10.10;8.70;;;18.80;99.30;;;;;;5044160;28;20486;-69
2022/06/17 01:32:48;;;;;;;9.38;8.15;;;18.80;99.30;;;;;;5042677;28;20032;-70
2022/06/17 01:35:14;;;;;;;10.10;7.88;;;18.80;99.40;;;;;;5042456;28;20033;-69
2022/06/17 01:37:41;;;;;;;9.85;7.80;;;18.70;99.30;;;;;;5042163;28;20103;-69
2022/06/17 01:40:07;;;;;;;8.63;7.82;;;18.70;99.50;;;;;;5042743;28;20090;-69
2022/06/17 01:42:37;;;;;;;13.65;7.45;;;18.70;99.90;;;;;;5039301;28;20040;-69
2022/06/17 01:45:03;;;;;;;9.80;7.60;;;18.60;99.70;;;;;;5043108;28;20449;-69
2022/06/17 01:47:31;;;;;;;9.55;7.75;;;18.60;99.90;;;;;;5044889;28;20025;-69
2022/06/17 01:50:07;;;;;;;8.05;7.25;;;18.50;99.90;;;;;;5043534;28;20029;-69
2022/06/17 01:52:40;;;;;;;9.60;7.00;;;18.50;99.90;;;;;;5042788;28;20057;-70
2022/06/17 01:55:14;;;;;;;;;;;18.50;99.90;;;;;;5044191;28;20025;-69
2022/06/17 01:57:46;;;;;;;9.55;8.55;;;18.40;99.80;;;;;;5042192;28;19920;-70
2022/06/17 02:00:21;;;;;;;14.80;8.30;;;18.50;99.90;;;;;;5041801;28;20017;-69
2022/06/17 02:02:55;;;;;;;9.50;8.50;;;18.40;99.90;;;;;;5042340;28;20377;-70
2022/06/17 02:05:24;;;;;;;10.00;9.00;;;18.40;99.70;;;;;;5042551;28;20109;-70
2022/06/17 02:07:57;;;;;;;12.90;8.40;;;18.40;99.40;;;;;;5041780;28;20044;-69
2022/06/17 02:10:27;;;;;;;11.13;9.93;;;18.40;99.60;;;;;;5044781;28;20025;-70
2022/06/17 02:12:54;;;;;;;13.18;9.65;;;18.30;99.70;;;;;;5043373;28;20025;-69
2022/06/17 02:15:20;;;;;;;12.98;9.93;;;18.30;99.60;;;;;;5044124;28;20033;-69
2022/06/17 02:17:49;;;;;;;11.27;8.50;;;18.30;99.80;;;;;;5041060;28;20086;-70
2022/06/17 02:20:17;;;;;;;9.75;8.55;;;18.30;99.70;;;;;;5043124;28;20017;-69
2022/06/17 02:22:43;;;;;;;15.73;9.77;;;18.30;99.90;;;;;;5052247;28;20036;-70
2022/06/17 02:25:17;;;;;;;10.43;9.52;;;18.30;99.40;;;;;;5053036;28;20021;-69
2022/06/17 02:27:44;;;;;;;12.07;9.73;;;18.30;99.90;;;;;;5052760;28;20036;-70
2022/06/17 02:30:11;;;;;;;14.82;10.48;;;18.30;99.90;;;;;;5052813;28;20151;-70
2022/06/17 02:32:38;;;;;;;13.07;10.48;;;18.20;99.90;;;;;;5052651;28;20107;-69
2022/06/17 02:35:47;;;;;;;13.65;9.43;;;18.10;99.90;;;;;;5036453;28;20498;-69
2022/06/17 02:38:17;;;;;;;12.27;9.15;;;18.10;99.90;;;;;;5058598;28;20068;-70
2022/06/17 02:40:47;;;;;;;14.73;10.75;;;18.10;99.90;;;;;;5071182;28;20091;-69
2022/06/17 02:43:17;;;;;;;12.35;10.20;;;18.00;99.90;;;;;;5031683;28;20464;-69
2022/06/17 02:45:48;;;;;;;14.20;9.10;;;18.00;99.90;;;;;;5032519;28;20057;-70
2022/06/17 02:48:27;;;;;;;11.60;9.00;;;18.10;99.90;;;;;;5047646;28;20457;-69
2022/06/17 02:50:56;;;;;;;9.35;8.35;;;18.10;99.90;;;;;;5037963;28;20022;-69
2022/06/17 02:53:30;;;;;;;9.60;8.70;;;18.00;99.90;;;;;;5032048;28;20041;-69
2022/06/17 02:55:57;;;;;;;12.57;9.27;;;17.90;99.90;;;;;;5036642;28;20025;-69
2022/06/17 02:58:43;;;;;;;11.45;9.40;;;17.90;99.90;;;;;;5067316;28;20400;-69
2022/06/17 03:01:17;;;;;;;11.65;10.45;;;17.90;99.90;;;;;;5074490;28;20115;-70
2022/06/17 03:03:44;;;;;;;18.90;11.30;;;18.00;99.90;;;;;;5075824;28;20047;-69
2022/06/17 03:06:17;;;;;;;11.30;9.85;;;18.00;99.90;;;;;;5040467;28;20398;-69
2022/06/17 03:08:47;;;;;;;11.15;9.98;;;18.00;99.90;;;;;;5053096;28;20021;-69
2022/06/17 03:11:12;;;;;;;13.38;11.07;;;17.90;99.90;;;;;;5055776;28;20401;-70
2022/06/17 03:13:44;;;;;;;16.67;12.55;;;17.90;99.90;;;;;;5055399;28;20017;-70
2022/06/17 03:16:12;;;;;;;12.48;11.30;;;17.90;99.90;;;;;;5051245;28;20029;-70
2022/06/17 03:18:38;;;;;;;13.05;11.25;;;17.90;99.90;;;;;;5034242;28;20040;-69
2022/06/17 03:21:06;;;;;;;16.30;10.95;;;17.90;99.90;;;;;;5034646;28;20030;-69
2022/06/17 03:24:03;;;;;;;12.70;11.35;;;17.90;99.90;;;;;;5035792;28;20021;-69
2022/06/17 03:26:36;;;;;;;16.63;12.40;;;17.80;99.90;;;;;;5036155;28;20030;-70
2022/06/17 03:29:04;;;;;;;14.57;13.13;;;17.80;99.90;;;;;;5035767;28;20519;-69
2022/06/17 03:31:40;;;;;;;14.30;12.82;;;17.80;99.90;;;;;;5035885;28;20083;-69
2022/06/17 03:34:18;;;;;;;14.93;12.77;;;17.80;99.90;;;;;;5035563;28;20025;-69
2022/06/17 03:36:49;;;;;;;15.60;12.75;;;17.80;99.90;;;;;;5036577;28;20033;-69
2022/06/17 03:39:40;;;;;;;13.68;12.27;;;17.80;99.90;;;;;;5054690;28;20671;-69
2022/06/17 03:42:19;;;;;;;11.25;10.05;;;17.90;99.90;;;;;;5071410;28;20048;-69
2022/06/17 03:44:50;;;;;;;11.68;9.98;;;17.90;99.90;;;;;;5074944;28;20039;-69
2022/06/17 03:47:27;;;;;;;11.18;9.98;;;17.90;99.90;;;;;;5053573;28;20401;-69
2022/06/17 03:49:56;;;;;;;13.65;10.13;;;17.90;99.90;;;;;;5054707;28;20024;-70
2022/06/17 03:52:31;;;;;;;11.40;9.13;;;17.90;99.90;;;;;;5040567;28;20063;-69
2022/06/17 03:54:57;;;;;;;10.27;9.27;;;18.00;99.90;;;;;;5035369;28;20022;-69
2022/06/17 03:57:25;;;;;;;10.25;9.23;;;18.00;99.90;;;;;;5035214;28;20179;-69
2022/06/17 03:59:52;;;;;;;12.48;9.68;;;18.00;99.90;;;;;;5034187;28;20509;-69
2022/06/17 04:02:18;;;;;;;13.18;10.98;;;18.00;99.90;;;;;;5035311;28;20049;-69
2022/06/17 04:04:50;;;;;;;17.38;11.70;;;18.00;99.90;;;;;;5036793;28;20441;-69
2022/06/17 04:07:16;;;;;;;23.17;11.38;;;18.00;99.90;;;;;;5034419;28;20037;-69
2022/06/17 04:09:44;;;;;;;12.05;9.85;;;18.10;99.90;;;;;;5034920;28;20026;-69
2022/06/17 04:12:12;;;;;;;11.90;10.77;;;18.10;99.90;;;;;;5034804;28;20030;-69
2022/06/17 04:15:00;;;;;;;13.98;10.25;;;18.10;99.90;;;;;;5049919;28;20040;-69
2022/06/17 04:17:32;;;;;;;11.88;10.25;;;18.10;99.90;;;;;;5054183;28;20059;-69
2022/06/17 04:20:34;;;;;;;12.07;10.57;;;18.20;99.90;;;;;;5054264;28;20013;-69
2022/06/17 04:23:12;;;;;;;10.73;9.63;;;18.30;99.90;;;;;;5053757;28;20021;-69
2022/06/17 04:25:53;;;;;;;11.23;10.07;;;18.30;99.90;;;;;;5053104;28;20333;-69
2022/06/17 04:28:23;;;;;;;12.35;10.27;;;18.20;99.90;;;;;;5054649;28;20082;-70
2022/06/17 04:31:11;;;;;;;11.77;10.00;;;18.20;99.90;;;;;;5054496;28;20036;-69
2022/06/17 04:33:45;;;;;;;11.68;10.57;;;18.20;99.90;;;;;;5054695;28;20078;-70
2022/06/17 04:36:25;;;;;;;11.65;9.30;;;18.30;99.90;;;;;;5038225;28;20040;-69
2022/06/17 04:38:53;;;;;;;10.75;9.55;;;18.30;99.90;;;;;;5034541;28;20029;-69
2022/06/17 04:41:22;;;;;;;11.18;10.05;;;18.30;99.90;;;;;;5033789;28;20021;-69
2022/06/17 04:43:53;;;;;;;12.65;10.23;;;18.40;99.90;;;;;;5051592;28;20119;-70
2022/06/17 04:46:45;;;;;;;13.95;12.35;;;18.30;99.90;;;;;;5052584;28;20482;-69
2022/06/17 04:49:21;;;;;;;11.37;10.20;;;18.10;99.90;;;;;;5074031;28;20042;-70
2022/06/17 04:51:48;;;;;;;11.10;9.98;;;18.20;99.90;;;;;;5038033;28;20334;-70
2022/06/17 04:54:14;;;;;;;13.30;11.50;;;18.30;99.90;;;;;;5033982;28;20104;-69
2022/06/17 04:56:46;;;;;;;13.40;10.02;;;18.30;99.90;;;;;;5032994;28;20096;-69
2022/06/17 04:59:40;;;;;;;13.95;9.20;;;18.40;99.90;;;;;;5034391;28;20025;-70
2022/06/17 05:02:12;;;;;;;12.90;9.02;;;18.40;99.90;;;;;;5033825;28;20474;-70
2022/06/17 05:04:38;;;;;;;11.23;10.18;;;18.30;99.90;;;;;;5034631;28;20025;-70
2022/06/17 05:07:04;;;;;;;12.40;10.02;;;18.40;99.90;;;;;;5032576;28;20030;-69
2022/06/17 05:09:59;;;;;;;11.35;9.05;;;18.50;99.90;;;;;;5032237;28;20025;-70
2022/06/17 05:12:34;;;;;;;12.23;8.73;;;18.50;99.90;;;;;;5057098;28;20041;-69
2022/06/17 05:15:06;;;;;;;8.98;8.15;;;18.50;99.90;;;;;;5051286;28;20111;-69
2022/06/17 05:17:33;;;;;;;8.95;8.00;;;18.50;99.90;;;;;;5033052;28;20034;-69
2022/06/17 05:19:58;;;;;;;10.85;9.75;;;18.70;99.90;;;;;;5048251;28;20032;-70
2022/06/17 05:22:41;;;;;;;12.85;10.68;;;18.80;99.90;;;;;;5042052;28;20029;-70
2022/06/17 05:25:16;;;;;;;12.52;11.30;;;18.80;99.90;;;;;;5052738;28;20354;-69
2022/06/17 05:27:41;;;;;;;15.43;11.10;;;18.90;99.90;;;;;;5073433;28;20017;-69
2022/06/17 05:30:07;;;;;;;10.57;9.35;;;18.90;99.90;;;;;;5073231;28;20032;-70
2022/06/17 05:32:33;;;;;;;15.40;10.70;;;18.90;99.90;;;;;;5051753;28;20055;-70
2022/06/17 05:34:59;;;;;;;13.27;10.82;;;18.90;99.90;;;;;;5052227;28;20473;-70
2022/06/17 05:37:25;;;;;;;15.35;10.20;;;19.00;99.90;;;;;;5051953;28;20737;-69
2022/06/17 05:39:50;;;;;;;12.63;9.63;;;19.10;99.90;;;;;;5053593;28;20021;-70
2022/06/17 05:42:16;;;;;;;12.63;11.32;;;19.10;99.90;;;;;;5052041;28;20116;-70
2022/06/17 05:44:42;;;;;;;13.35;11.55;;;19.10;99.90;;;;;;5064568;28;20362;-70
2022/06/17 05:47:07;;;;;;;16.42;10.90;;;19.20;99.90;;;;;;5072948;28;20081;-70
2022/06/17 05:49:34;;;;;;;17.45;11.65;;;19.20;99.90;;;;;;5072856;28;20206;-70
2022/06/17 05:51:59;;;;;;;19.70;14.02;;;19.30;99.90;;;;;;5052911;28;20246;-70
2022/06/17 05:54:26;;;;;;;19.70;10.55;;;19.30;99.90;;;;;;5051963;28;20548;-70
2022/06/17 05:56:51;;;;;;;12.30;8.95;;;19.30;99.90;;;;;;5051331;28;20041;-70
2022/06/17 05:59:17;;;;;;;10.80;8.23;;;19.30;99.90;;;;;;5035002;28;20489;-70
2022/06/17 06:01:44;;;;;;;13.45;11.35;;;19.30;99.90;;;;;;5032855;28;20505;-69
2022/06/17 06:04:10;;;;;;;13.35;9.73;;;19.30;99.90;;;;;;5048298;28;20031;-70
2022/06/17 06:06:35;;;;;;;14.82;11.68;;;19.30;99.90;;;;;;5037505;28;20030;-70
2022/06/17 06:09:02;;;;;;;13.82;9.27;;;19.30;99.90;;;;;;5031897;28;20060;-70
2022/06/17 06:11:28;;;;;;;12.30;8.93;;;19.30;99.90;;;;;;5032927;28;20030;-70
2022/06/17 06:13:53;;;;;;;16.45;11.93;;;19.40;99.90;;;;;;5031307;28;20025;-70
2022/06/17 06:16:19;;;;;;;15.23;11.60;;;19.40;99.90;;;;;;5033147;28;20429;-70
2022/06/17 06:18:47;;;;;;;14.63;10.52;;;19.40;99.90;;;;;;5032939;28;20025;-70
2022/06/17 06:21:13;;;;;;;12.20;10.85;;;19.50;99.90;;;;;;5046224;28;20405;-70
2022/06/17 06:23:39;;;;;;;10.43;9.38;;;19.50;99.90;;;;;;5069276;28;20017;-70
2022/06/17 06:26:08;;;;;;;14.38;8.77;;;19.70;99.90;;;;;;5052610;28;20044;-70
2022/06/17 06:28:34;;;;;;;12.55;9.63;;;19.70;99.90;;;;;;5054118;28;20145;-70
2022/06/17 06:31:01;;;;;;;10.25;9.07;;;19.70;99.90;;;;;;5056854;28;20032;-70
2022/06/17 06:33:27;;;;;;;11.13;9.55;;;19.70;99.90;;;;;;5056408;28;20043;-70
2022/06/17 06:35:53;;;;;;;11.70;9.52;;;19.70;99.90;;;;;;5055854;28;20485;-70
2022/06/17 06:38:19;;;;;;;13.90;9.57;;;19.70;99.90;;;;;;5050789;28;20153;-69
2022/06/17 06:40:45;;;;;;;14.30;10.93;;;19.90;99.90;;;;;;5036118;28;20044;-70
2022/06/17 06:43:14;;;;;;;10.00;9.00;;;19.90;99.90;;;;;;5036824;28;20037;-70
2022/06/17 06:45:40;;;;;;;16.40;10.13;;;20.10;99.90;;;;;;5046861;28;20552;-70
2022/06/17 06:48:08;;;;;;;11.57;9.50;;;20.10;99.90;;;;;;5056341;28;20075;-70
2022/06/17 06:50:35;;;;;;;11.65;9.18;;;20.20;99.90;;;;;;5056074;28;20056;-70
2022/06/17 06:53:01;;;;;;;10.98;9.75;;;20.40;99.90;;;;;;5056165;28;20025;-70
2022/06/17 06:55:27;;;;;;;13.75;9.93;;;20.60;99.90;;;;;;5055309;28;20038;-70
2022/06/17 06:57:58;;;;;;;11.73;8.82;;;20.60;99.90;;;;;;5055830;28;20397;-70
2022/06/17 07:00:46;;;;;;;9.68;7.68;;;20.60;99.90;;;;;;5055448;28;20057;-70
2022/06/17 07:03:12;;;;;;;9.45;8.48;;;20.70;99.90;;;;;;5053956;28;20496;-70
2022/06/17 07:05:42;;;;;;;13.70;8.88;;;20.70;99.90;;;;;;5035675;28;20018;-70
2022/06/17 07:08:11;;;;;;;10.00;7.70;;;20.80;99.90;;;;;;5043500;28;20025;-70
2022/06/17 07:10:37;;;;;;;10.98;7.25;;;20.80;99.90;;;;;;5072404;28;20112;-70
2022/06/17 07:13:05;;;;;;;16.60;8.48;;;20.80;99.90;;;;;;5051343;28;20096;-70
2022/06/17 07:15:32;;;;;;;9.55;7.05;;;20.80;99.90;;;;;;5046040;28;20477;-70
2022/06/17 07:18:12;;;;;;;10.25;6.85;;;21.00;99.90;;;;;;5045014;28;20060;-70
2022/06/17 07:20:42;;;;;;;9.27;7.10;;;21.20;99.90;;;;;;5045705;28;20013;-71
2022/06/17 07:23:14;;;;;;;7.68;6.88;;;21.20;99.90;;;;;;5045824;28;20053;-71
2022/06/17 07:25:42;;;;;;;7.75;5.78;;;21.40;99.90;;;;;;5040420;28;20459;-71
2022/06/17 07:28:08;;;;;;;7.15;6.43;;;21.60;99.90;;;;;;5035975;28;20018;-71
2022/06/17 07:30:34;;;;;;;8.32;6.65;;;21.80;99.90;;;;;;5060668;28;20035;-70
2022/06/17 07:33:01;;;;;;;8.13;6.22;;;21.90;99.90;;;;;;5075922;28;20457;-71
2022/06/17 07:35:27;;;;;;;11.10;5.78;;;22.10;99.90;;;;;;5054604;28;20074;-70
2022/06/17 07:40:48;;;;;;;7.53;5.32;;;22.30;99.90;;;;;;5068197;28;20028;-71
2022/06/17 07:43:18;;;;;;;9.93;5.35;;;22.40;99.90;;;;;;5035059;28;20121;-71
2022/06/17 07:45:44;;;;;;;7.40;5.60;;;22.40;99.90;;;;;;5036846;28;20038;-71
2022/06/17 07:48:13;;;;;;;7.50;4.95;;;22.40;99.90;;;;;;5055621;28;20049;-71
2022/06/17 07:50:41;;;;;;;7.90;4.93;;;22.70;99.90;;;;;;5054517;28;20025;-72
2022/06/17 07:53:08;;;;;;;7.50;4.72;;;22.70;99.90;;;;;;5055363;28;20080;-71
2022/06/17 07:55:34;;;;;;;6.03;4.97;;;22.80;99.90;;;;;;5063654;28;20032;-71
2022/06/17 07:58:00;;;;;;;7.03;4.30;;;22.80;99.90;;;;;;5054948;28;20037;-72
2022/06/17 08:00:29;;;;;;;6.30;4.65;;;23.00;99.90;;;;;;5054577;28;20091;-71
2022/06/17 08:02:55;;;;;;;5.95;3.95;;;23.00;99.90;;;;;;5053448;28;20029;-70
2022/06/17 08:05:21;;;;;;;8.40;4.38;;;23.20;99.90;;;;;;5053995;28;20029;-71
2022/06/17 08:07:48;;;;;;;6.25;4.63;;;23.30;99.90;;;;;;5055120;28;20021;-71
2022/06/17 08:10:21;;;;;;;8.38;3.75;;;23.50;99.90;;;;;;5054813;28;20032;-71
2022/06/17 08:12:47;;;;;;;6.05;3.60;;;23.60;99.90;;;;;;5054980;28;20033;-71
2022/06/17 08:15:13;;;;;;;5.75;3.60;;;23.80;99.90;;;;;;5055279;28;20032;-70
2022/06/17 08:17:42;;;;;;;6.53;3.65;;;24.00;99.60;;;;;;5054736;28;20028;-71
2022/06/17 08:20:26;;;;;;;5.88;3.33;;;23.90;98.40;;;;;;5036265;28;20390;-71
2022/06/17 08:22:52;;;;;;;4.13;2.70;;;24.10;97.80;;;;;;5034413;28;20064;-71
2022/06/17 08:25:19;;;;;;;6.90;3.33;;;24.40;98.80;;;;;;5042048;28;20037;-71
2022/06/17 08:27:53;;;;;;;4.07;3.42;;;24.60;96.20;;;;;;5040790;28;20029;-71
2022/06/17 08:30:22;;;;;;;4.22;3.25;;;24.50;96.40;;;;;;5050791;28;20500;-71
2022/06/17 08:32:51;;;;;;;5.07;2.95;;;24.70;96.20;;;;;;5049079;28;20024;-72
2022/06/17 08:35:32;;;;;;;5.47;3.53;;;24.80;98.10;;;;;;5054063;28;20029;-71
2022/06/17 08:38:03;;;;;;;6.80;3.25;;;25.00;97.90;;;;;;5054412;28;20033;-71
2022/06/17 08:40:39;;;;;;;3.88;2.85;;;25.10;95.90;;;;;;5066222;28;20021;-71
2022/06/17 08:43:15;;;;;;;4.43;2.97;;;25.30;97.10;;;;;;5071940;28;20033;-72
2022/06/17 08:46:11;;;;;;;4.88;3.03;;;25.30;96.00;;;;;;5048225;28;20029;-71
2022/06/17 08:49:04;;;;;;;5.80;3.25;;;25.40;96.90;;;;;;5034358;28;20036;-71
2022/06/17 08:51:33;;;;;;;6.10;2.78;;;25.40;95.50;;;;;;5043241;28;20136;-71
2022/06/17 08:54:10;;;;;;;4.35;3.22;;;25.50;94.90;;;;;;5053903;28;20095;-72
2022/06/17 08:56:51;;;;;;;6.95;3.00;;;25.60;95.30;;;;;;5053546;28;20112;-71
2022/06/17 08:59:36;;;;;;;2.97;2.70;;;25.80;94.20;;;;;;5073519;28;20449;-72
2022/06/17 09:02:44;;;;;;;5.30;3.60;;;25.80;93.00;;;;;;5072363;28;20381;-71
2022/06/17 09:05:27;;;;;;;4.78;3.08;;;25.70;92.40;;;;;;5058055;28;20025;-71
2022/06/17 09:07:58;;;;;;;;;;;26.00;93.30;;;;;;5033872;28;20025;-72
2022/06/17 09:10:47;;;;;;;4.07;3.67;;;25.90;91.90;;;;;;5033722;28;19909;-71
2022/06/17 09:13:19;;;;;;;6.85;3.85;;;25.90;92.40;;;;;;5033773;28;20110;-72
2022/06/17 09:16:00;;;;;;;7.77;3.90;;;25.80;92.10;;;;;;5033377;28;20030;-72
2022/06/17 09:18:48;;;;;;;6.78;3.85;;;26.00;91.30;;;;;;5033363;28;20122;-71
2022/06/17 09:21:27;;;;;;;7.15;3.60;;;25.90;91.60;;;;;;5048059;28;20036;-72
2022/06/17 09:23:55;;;;;;;4.10;2.80;;;26.20;92.40;;;;;;5071527;28;20292;-71
2022/06/17 09:26:26;;;;;;;6.03;3.28;;;26.40;93.60;;;;;;5056592;28;20032;-72
2022/06/17 09:29:01;;;;;;;8.10;3.22;;;26.50;91.60;;;;;;5053226;28;20052;-71
2022/06/17 09:31:38;;;;;;;4.28;3.30;;;26.60;90.90;;;;;;5052707;28;20522;-71
2022/06/17 09:34:42;;;;;;;5.03;3.05;;;26.70;90.60;;;;;;5052890;28;20040;-71
2022/06/17 09:37:18;;;;;;;3.80;3.03;;;26.90;91.30;;;;;;5032566;28;20053;-72
2022/06/17 09:39:58;;;;;;;7.00;3.28;;;27.30;91.20;;;;;;5040916;28;20022;-71
2022/06/17 09:42:37;;;;;;;4.30;2.63;;;27.50;91.30;;;;;;5052320;28;20033;-71
2022/06/17 09:45:12;;;;;;;6.57;2.72;;;27.90;90.40;;;;;;5053213;28;20033;-72
2022/06/17 09:47:44;;;;;;;5.60;2.60;;;28.20;90.40;;;;;;5049375;28;20021;-71
2022/06/17 09:50:24;;;;;;;4.20;2.53;;;27.90;88.70;;;;;;5043004;28;20069;-72
2022/06/17 09:53:06;;;;;;;4.30;2.55;;;28.10;86.80;;;;;;5044915;28;20029;-71
2022/06/17 09:55:38;;;;;;;6.05;2.25;;;28.20;89.40;;;;;;5047687;28;20043;-72
2022/06/17 09:58:24;;;;;;;5.05;2.50;;;28.20;87.30;;;;;;5046537;28;20075;-72
2022/06/17 10:00:53;;;;;;;4.45;2.17;;;28.10;87.00;;;;;;5042269;28;20025;-71
2022/06/17 10:03:24;;;;;;;3.50;2.25;;;28.50;89.30;;;;;;5035746;28;20061;-72
2022/06/17 10:06:19;;;;;;;3.20;2.47;;;28.80;88.20;;;;;;5021967;28;20018;-71
2022/06/17 10:09:05;;;;;;;2.63;2.15;;;28.60;80.80;;;;;;5044943;28;20021;-71
2022/06/17 10:11:32;;;;;;;4.32;2.25;;;28.60;87.50;;;;;;5066318;28;20514;-71
2022/06/17 10:14:09;;;;;;;3.47;2.45;;;28.80;83.00;;;;;;5072173;28;20120;-71
2022/06/17 10:20:03;;;;;;;3.13;2.83;;;28.70;84.50;;;;;;5045427;28;20508;-71
2022/06/17 10:22:48;;;;;;;3.65;2.13;;;28.70;81.40;;;;;;5066734;28;20048;-72
2022/06/17 10:25:29;;;;;;;3.03;2.10;;;29.00;86.00;;;;;;5041725;28;20086;-71
2022/06/17 10:28:19;;;;;;;6.75;1.92;;;28.90;83.10;;;;;;5061335;28;20028;-71
2022/06/17 10:30:59;;;;;;;3.88;1.90;;;29.00;82.90;;;;;;5064547;28;20032;-71
2022/06/17 10:33:29;;;;;;;2.13;1.88;;;29.20;79.90;;;;;;5056085;28;20009;-72
2022/06/17 10:35:55;;;;;;;3.65;1.90;;;28.90;79.30;;;;;;5050629;28;20377;-72
2022/06/17 10:38:28;;;;;;;3.83;2.15;;;29.10;82.90;;;;;;5065816;28;20032;-72
2022/06/17 10:40:54;;;;;;;;;;;29.20;79.90;;;;;;5053601;28;20558;-72
2022/06/17 10:43:22;;;;;;;4.70;1.75;;;29.30;83.20;;;;;;5064404;28;19912;-71
2022/06/17 10:45:52;;;;;;;3.50;1.60;;;29.30;78.10;;;;;;5040008;28;20470;-72
2022/06/17 10:48:35;;;;;;;3.97;1.20;;;29.00;83.40;;;;;;5057509;28;20047;-72
2022/06/17 10:51:03;;;;;;;4.18;1.55;;;29.20;81.10;;;;;;5065871;28;20060;-71
2022/06/17 10:53:41;;;;;;;3.20;1.70;;;29.50;78.20;;;;;;5058353;28;20031;-72
2022/06/17 10:56:22;;;;;;;3.40;1.48;;;29.80;81.10;;;;;;5063284;28;20423;-72
2022/06/17 10:58:55;;;;;;;2.58;1.83;;;29.40;78.90;;;;;;5053635;28;20067;-71
2022/06/17 11:01:21;;;;;;;1.70;1.50;;;29.50;80.70;;;;;;5065662;28;20354;-72
2022/06/17 11:03:48;;;;;;;1.98;1.60;;;29.90;80.30;;;;;;5051848;28;20107;-72
2022/06/17 11:06:14;;;;;;;3.65;1.80;;;30.00;79.20;;;;;;5051036;28;20389;-72
2022/06/17 11:08:48;;;;;;;3.53;1.60;;;30.00;77.90;;;;;;5042350;28;20025;-72
2022/06/17 11:14:03;;;;;;;3.78;1.75;;;30.30;74.60;;;;;;5052091;28;20044;-72
2022/06/17 11:16:40;;;;;;;4.07;1.67;;;30.70;74.90;;;;;;5054637;28;20061;-72
2022/06/17 11:19:16;;;;;;;3.70;1.50;;;30.40;77.40;;;;;;5050747;28;20032;-71
2022/06/17 11:21:49;;;;;;;3.10;1.65;;;30.40;77.90;;;;;;5061989;28;20032;-72
2022/06/17 11:24:24;;;;;;;7.45;1.67;;;30.20;75.60;;;;;;5053607;28;20388;-72
2022/06/17 11:27:28;;;;;;;2.92;2.05;;;30.40;74.80;;;;;;5053610;28;20029;-73
2022/06/17 11:29:56;;;;;;;1.67;1.48;;;30.40;77.50;;;;;;5055169;28;20377;-72
2022/06/17 11:32:30;;;;;;;4.88;1.60;;;30.50;75.20;;;;;;5057078;28;20489;-72
2022/06/17 11:35:21;;;;;;;3.60;1.40;;;30.50;73.00;;;;;;5050080;28;20113;-71
2022/06/17 11:37:49;;;;;;;2.95;1.48;;;30.70;72.60;;;;;;5057865;28;20049;-72
2022/06/17 11:40:17;;;;;;;1.38;1.15;;;30.80;72.50;;;;;;5065687;28;20064;-72
2022/06/17 11:43:02;;;;;;;3.30;1.60;;;30.90;73.80;;;;;;5060952;28;20029;-72
2022/06/17 11:45:31;;;;;;;6.22;1.58;;;30.60;74.20;;;;;;5063290;28;20064;-72
2022/06/17 11:48:04;;;;;;;2.38;1.77;;;30.60;75.10;;;;;;5049897;28;20387;-72
2022/06/17 11:50:33;;;;;;;8.55;2.13;;;30.70;76.20;;;;;;5060208;28;20025;-73
2022/06/17 11:53:07;;;;;;;2.35;1.55;;;31.00;73.60;;;;;;5061397;28;20418;-72
2022/06/17 11:55:43;;;;;;;6.20;2.00;;;31.20;76.10;;;;;;5051291;28;20371;-72
2022/06/17 11:58:11;;;;;;;5.00;1.77;;;31.40;74.50;;;;;;5060747;28;20035;-72
2022/06/17 12:00:48;;;;;;;4.68;1.48;;;31.50;72.00;;;;;;5043661;28;20031;-73
2022/06/17 12:03:21;;;;;;;3.83;1.70;;;31.40;77.80;;;;;;5055269;28;20393;-72
2022/06/17 12:06:18;;;;;;;1.88;1.65;;;31.20;76.00;;;;;;5057995;28;20111;-73
2022/06/17 12:08:50;;;;;;;2.38;1.50;;;30.90;74.70;;;;;;5056372;28;20020;-72
2022/06/17 12:11:57;;;;;;;3.15;1.20;;;30.90;75.30;;;;;;5056277;28;20564;-72
2022/06/17 12:14:50;;;;;;;3.55;1.73;;;30.90;75.30;;;;;;5084767;28;20029;-72
2022/06/17 12:17:18;;;;;;;1.40;1.30;;;30.80;75.00;;;;;;5073503;28;20567;-72
2022/06/17 12:19:44;;;;;;;3.70;1.77;;;30.60;71.40;;;;;;5063781;28;20087;-73
2022/06/17 12:22:13;;;;;;;2.50;1.42;;;30.70;73.60;;;;;;5052874;28;20029;-73
2022/06/17 12:24:57;;;;;;;2.92;1.83;;;30.80;72.40;;;;;;5051430;28;20472;-72
2022/06/17 12:27:26;;;;;;;4.80;1.67;;;31.20;73.00;;;;;;5061297;28;20028;-72
2022/06/17 12:29:59;;;;;;;2.92;1.50;;;31.00;74.30;;;;;;5053492;28;20033;-73
2022/06/17 12:32:33;;;;;;;3.15;1.38;;;31.40;75.50;;;;;;5054835;28;20037;-72
2022/06/17 12:35:07;;;;;;;2.53;1.38;;;31.10;72.30;;;;;;5048102;28;20025;-73
2022/06/17 12:37:36;;;;;;;10.00;1.70;;;30.90;74.10;;;;;;5051134;28;20037;-73
2022/06/17 12:40:29;;;;;;;1.40;1.30;;;31.00;73.90;;;;;;5050358;28;20021;-73
2022/06/17 12:43:25;;;;;;;3.00;1.60;;;31.30;74.80;;;;;;5051544;28;20025;-72
2022/06/17 12:46:01;;;;;;;4.38;1.30;;;31.80;74.60;;;;;;5051056;28;20608;-72
2022/06/17 12:48:27;;;;;;;4.38;1.80;;;31.50;73.80;;;;;;5052446;28;20466;-72
2022/06/17 12:54:12;;;;;;;4.65;1.30;;;31.70;72.00;;;;;;5049418;28;20608;-72
2022/06/17 12:56:55;;;;;;;1.35;1.00;;;31.90;71.50;;;;;;5049645;28;20111;-73
2022/06/17 12:59:39;;;;;;;1.80;1.40;;;31.60;73.10;;;;;;5045622;28;20026;-72
2022/06/17 13:02:13;;;;;;;4.40;1.30;;;31.50;71.70;;;;;;5048393;28;20028;-72
2022/06/17 13:05:06;;;;;;;2.90;1.20;;;31.60;72.80;;;;;;5063587;28;20082;-72
2022/06/17 13:07:58;;;;;;;2.65;1.48;;;31.60;72.60;;;;;;5045704;28;20029;-72
2022/06/17 13:10:48;;;;;;;1.88;1.30;;;31.80;71.20;;;;;;5055072;28;20033;-73
2022/06/17 13:13:35;;;;;;;3.03;1.30;;;31.60;74.60;;;;;;5054664;28;20044;-73
2022/06/17 13:16:18;;;;;;;1.73;1.10;;;31.50;73.10;;;;;;5048477;28;20075;-73
2022/06/17 13:19:00;;;;;;;1.08;1.08;;;31.30;70.90;;;;;;5054016;28;20032;-72
2022/06/17 13:21:56;;;;;;;4.80;1.75;;;31.60;73.50;;;;;;5050136;28;20017;-72
2022/06/17 13:24:57;;;;;;;1.30;1.20;;;31.80;69.90;;;;;;5057372;28;20036;-72